sensor_id;sensor_type;location;lat;lon;timestamp;pressure;altitude;pressure_sealevel;temperature;humidity
41062;BME280;26812;42.662;23.352;2022-11-20T00:00:28;94163.31;;;17.00;59.51
41062;BME280;26812;42.662;23.352;2022-11-20T00:02:53;94190.53;;;17.00;60.91
41062;BME280;26812;42.662;23.352;2022-11-20T00:05:19;94202.63;;;16.36;63.60
41062;BME280;26812;42.662;23.352;2022-11-20T00:07:45;94191.91;;;16.17;64.60
41062;BME280;26812;42.662;23.352;2022-11-20T00:10:11;94223.59;;;16.35;65.12
41062;BME280;26812;42.662;23.352;2022-11-20T00:12:37;94197.91;;;15.99;66.95
41062;BME280;26812;42.662;23.352;2022-11-20T00:15:03;94207.41;;;15.86;67.36
41062;BME280;26812;42.662;23.352;2022-11-20T00:17:29;94132.38;;;15.48;68.46
41062;BME280;26812;42.662;23.352;2022-11-20T00:19:54;94208.75;;;15.46;69.74
41062;BME280;26812;42.662;23.352;2022-11-20T00:22:19;94205.28;;;15.49;67.90
41062;BME280;26812;42.662;23.352;2022-11-20T00:24:45;94167.25;;;15.46;67.37
41062;BME280;26812;42.662;23.352;2022-11-20T00:27:10;94200.78;;;15.83;65.82
41062;BME280;26812;42.662;23.352;2022-11-20T00:29:36;94176.53;;;15.98;63.20
41062;BME280;26812;42.662;23.352;2022-11-20T00:32:01;94167.84;;;15.89;65.43
41062;BME280;26812;42.662;23.352;2022-11-20T00:34:26;94173.44;;;15.99;65.32
41062;BME280;26812;42.662;23.352;2022-11-20T00:36:52;94181.56;;;16.26;64.97
41062;BME280;26812;42.662;23.352;2022-11-20T00:39:18;94182.22;;;16.19;63.90
41062;BME280;26812;42.662;23.352;2022-11-20T00:41:43;94136.72;;;16.12;61.70
41062;BME280;26812;42.662;23.352;2022-11-20T00:44:09;94159.25;;;16.46;61.50
41062;BME280;26812;42.662;23.352;2022-11-20T00:46:34;94181.50;;;16.89;60.11
41062;BME280;26812;42.662;23.352;2022-11-20T00:49:00;94175.53;;;16.76;60.14
41062;BME280;26812;42.662;23.352;2022-11-20T00:51:26;94209.56;;;16.63;61.00
41062;BME280;26812;42.662;23.352;2022-11-20T00:53:55;94188.22;;;16.65;59.36
41062;BME280;26812;42.662;23.352;2022-11-20T00:56:20;94162.00;;;16.84;57.87
41062;BME280;26812;42.662;23.352;2022-11-20T00:58:47;94199.50;;;17.04;57.84
41062;BME280;26812;42.662;23.352;2022-11-20T01:01:14;94167.25;;;17.06;56.59
41062;BME280;26812;42.662;23.352;2022-11-20T01:03:42;94182.63;;;17.29;56.71
41062;BME280;26812;42.662;23.352;2022-11-20T01:06:14;94174.81;;;17.24;56.32
41062;BME280;26812;42.662;23.352;2022-11-20T01:08:40;94206.44;;;17.43;54.78
41062;BME280;26812;42.662;23.352;2022-11-20T01:11:11;94169.81;;;17.81;53.02
41062;BME280;26812;42.662;23.352;2022-11-20T01:13:37;94175.72;;;17.97;51.76
41062;BME280;26812;42.662;23.352;2022-11-20T01:18:33;94143.63;;;18.56;49.33
41062;BME280;26812;42.662;23.352;2022-11-20T01:21:07;94164.00;;;18.87;49.11
41062;BME280;26812;42.662;23.352;2022-11-20T01:23:34;94166.78;;;19.01;47.78
41062;BME280;26812;42.662;23.352;2022-11-20T01:26:02;94122.69;;;18.88;48.31
41062;BME280;26812;42.662;23.352;2022-11-20T01:28:28;94128.13;;;18.74;49.27
41062;BME280;26812;42.662;23.352;2022-11-20T01:30:54;94153.44;;;18.68;49.72
41062;BME280;26812;42.662;23.352;2022-11-20T01:33:20;94143.31;;;18.72;49.86
41062;BME280;26812;42.662;23.352;2022-11-20T01:35:45;94156.97;;;18.86;48.64
41062;BME280;26812;42.662;23.352;2022-11-20T01:38:10;94142.19;;;18.98;48.84
41062;BME280;26812;42.662;23.352;2022-11-20T01:40:36;94127.34;;;18.95;48.79
41062;BME280;26812;42.662;23.352;2022-11-20T01:43:16;94135.19;;;19.07;48.25
41062;BME280;26812;42.662;23.352;2022-11-20T01:48:54;94132.41;;;18.86;48.41
41062;BME280;26812;42.662;23.352;2022-11-20T01:51:22;94115.66;;;18.91;47.36
41062;BME280;26812;42.662;23.352;2022-11-20T01:53:52;94133.63;;;19.03;48.68
41062;BME280;26812;42.662;23.352;2022-11-20T01:56:19;94104.38;;;19.14;47.53
41062;BME280;26812;42.662;23.352;2022-11-20T01:58:52;94113.34;;;19.07;49.06
41062;BME280;26812;42.662;23.352;2022-11-20T02:01:20;94112.94;;;18.77;49.13
41062;BME280;26812;42.662;23.352;2022-11-20T02:03:46;94123.44;;;18.85;50.11
41062;BME280;26812;42.662;23.352;2022-11-20T02:08:51;94135.50;;;18.63;51.02
41062;BME280;26812;42.662;23.352;2022-11-20T02:11:17;94138.81;;;18.10;52.29
41062;BME280;26812;42.662;23.352;2022-11-20T02:13:43;94123.50;;;17.88;52.72
41062;BME280;26812;42.662;23.352;2022-11-20T02:18:46;94162.47;;;17.95;51.89
41062;BME280;26812;42.662;23.352;2022-11-20T02:21:17;94143.50;;;18.13;50.56
41062;BME280;26812;42.662;23.352;2022-11-20T02:26:28;94143.94;;;18.37;50.84
41062;BME280;26812;42.662;23.352;2022-11-20T02:28:55;94141.22;;;18.33;51.37
41062;BME280;26812;42.662;23.352;2022-11-20T02:31:21;94143.63;;;18.45;50.36
41062;BME280;26812;42.662;23.352;2022-11-20T02:33:47;94120.53;;;18.21;49.52
41062;BME280;26812;42.662;23.352;2022-11-20T02:36:15;94148.41;;;18.80;47.23
41062;BME280;26812;42.662;23.352;2022-11-20T02:38:41;94128.91;;;18.96;47.01
41062;BME280;26812;42.662;23.352;2022-11-20T02:41:07;94151.53;;;18.97;46.92
41062;BME280;26812;42.662;23.352;2022-11-20T02:43:32;94147.66;;;19.01;47.13
41062;BME280;26812;42.662;23.352;2022-11-20T02:45:57;94143.75;;;19.16;47.58
41062;BME280;26812;42.662;23.352;2022-11-20T02:48:23;94150.00;;;19.20;46.52
41062;BME280;26812;42.662;23.352;2022-11-20T02:50:48;94157.03;;;19.29;46.59
41062;BME280;26812;42.662;23.352;2022-11-20T02:53:14;94151.19;;;19.30;46.66
41062;BME280;26812;42.662;23.352;2022-11-20T02:55:39;94171.84;;;19.28;47.13
41062;BME280;26812;42.662;23.352;2022-11-20T02:58:04;94167.19;;;19.42;47.04
41062;BME280;26812;42.662;23.352;2022-11-20T03:00:30;94157.81;;;19.36;47.69
41062;BME280;26812;42.662;23.352;2022-11-20T03:02:55;94146.09;;;19.11;48.15
41062;BME280;26812;42.662;23.352;2022-11-20T03:05:21;94158.97;;;19.14;48.54
41062;BME280;26812;42.662;23.352;2022-11-20T03:07:46;94187.44;;;19.20;48.44
41062;BME280;26812;42.662;23.352;2022-11-20T03:10:12;94153.91;;;19.27;48.11
41062;BME280;26812;42.662;23.352;2022-11-20T03:12:37;94179.25;;;19.16;48.42
41062;BME280;26812;42.662;23.352;2022-11-20T03:15:03;94177.69;;;19.19;48.38
41062;BME280;26812;42.662;23.352;2022-11-20T03:17:28;94182.00;;;19.34;47.91
41062;BME280;26812;42.662;23.352;2022-11-20T03:19:54;94163.28;;;19.33;47.90
41062;BME280;26812;42.662;23.352;2022-11-20T03:22:20;94202.69;;;19.49;47.75
41062;BME280;26812;42.662;23.352;2022-11-20T03:24:45;94206.59;;;19.59;47.22
41062;BME280;26812;42.662;23.352;2022-11-20T03:27:11;94185.53;;;19.35;47.77
41062;BME280;26812;42.662;23.352;2022-11-20T03:29:36;94183.97;;;19.41;47.51
41062;BME280;26812;42.662;23.352;2022-11-20T03:32:02;94168.34;;;19.31;47.52
41062;BME280;26812;42.662;23.352;2022-11-20T03:34:27;94209.31;;;19.34;48.01
41062;BME280;26812;42.662;23.352;2022-11-20T03:36:52;94202.25;;;19.26;48.22
41062;BME280;26812;42.662;23.352;2022-11-20T03:39:18;94209.31;;;19.31;48.16
41062;BME280;26812;42.662;23.352;2022-11-20T03:41:43;94183.53;;;19.28;47.58
41062;BME280;26812;42.662;23.352;2022-11-20T03:44:11;94205.41;;;19.32;48.09
41062;BME280;26812;42.662;23.352;2022-11-20T03:46:37;94190.94;;;19.28;48.02
41062;BME280;26812;42.662;23.352;2022-11-20T03:49:03;94214.78;;;19.34;47.87
41062;BME280;26812;42.662;23.352;2022-11-20T03:51:31;94217.50;;;19.34;47.85
41062;BME280;26812;42.662;23.352;2022-11-20T03:54:04;94207.34;;;19.28;47.89
41062;BME280;26812;42.662;23.352;2022-11-20T03:56:31;94205.00;;;19.22;48.08
41062;BME280;26812;42.662;23.352;2022-11-20T03:58:57;94224.88;;;19.12;48.24
41062;BME280;26812;42.662;23.352;2022-11-20T04:01:29;94208.50;;;19.19;48.33
41062;BME280;26812;42.662;23.352;2022-11-20T04:03:56;94174.97;;;19.15;47.61
41062;BME280;26812;42.662;23.352;2022-11-20T04:06:27;94200.75;;;19.29;47.68
41062;BME280;26812;42.662;23.352;2022-11-20T04:08:57;94210.50;;;19.30;47.92
41062;BME280;26812;42.662;23.352;2022-11-20T04:11:25;94205.78;;;19.23;47.57
41062;BME280;26812;42.662;23.352;2022-11-20T04:13:58;94197.59;;;19.23;47.45
41062;BME280;26812;42.662;23.352;2022-11-20T04:16:26;94212.41;;;19.15;47.69
41062;BME280;26812;42.662;23.352;2022-11-20T04:19:01;94211.63;;;19.25;47.51
41062;BME280;26812;42.662;23.352;2022-11-20T04:21:27;94238.59;;;19.30;47.50
41062;BME280;26812;42.662;23.352;2022-11-20T04:23:53;94222.16;;;19.16;47.99
41062;BME280;26812;42.662;23.352;2022-11-20T04:26:20;94226.06;;;19.18;47.61
41062;BME280;26812;42.662;23.352;2022-11-20T04:28:46;94191.28;;;18.90;48.18
41062;BME280;26812;42.662;23.352;2022-11-20T04:31:14;94217.88;;;19.08;48.21
41062;BME280;26812;42.662;23.352;2022-11-20T04:33:40;94226.00;;;18.93;48.62
41062;BME280;26812;42.662;23.352;2022-11-20T04:36:07;94226.38;;;18.92;48.88
41062;BME280;26812;42.662;23.352;2022-11-20T04:38:35;94222.16;;;19.02;48.74
41062;BME280;26812;42.662;23.352;2022-11-20T04:41:03;94225.59;;;18.84;49.38
41062;BME280;26812;42.662;23.352;2022-11-20T04:43:29;94213.91;;;18.87;48.92
41062;BME280;26812;42.662;23.352;2022-11-20T04:45:56;94231.44;;;18.86;49.56
41062;BME280;26812;42.662;23.352;2022-11-20T04:48:22;94204.13;;;18.76;49.70
41062;BME280;26812;42.662;23.352;2022-11-20T04:50:48;94219.81;;;19.04;48.73
41062;BME280;26812;42.662;23.352;2022-11-20T04:53:26;94213.06;;;18.66;49.85
41062;BME280;26812;42.662;23.352;2022-11-20T04:55:59;94219.75;;;18.82;49.39
41062;BME280;26812;42.662;23.352;2022-11-20T04:58:24;94222.50;;;18.89;49.63
41062;BME280;26812;42.662;23.352;2022-11-20T05:00:50;94210.06;;;19.10;49.41
41062;BME280;26812;42.662;23.352;2022-11-20T05:03:16;94180.81;;;19.03;48.90
41062;BME280;26812;42.662;23.352;2022-11-20T05:05:42;94181.59;;;19.07;48.50
41062;BME280;26812;42.662;23.352;2022-11-20T05:08:07;94167.50;;;18.70;49.12
41062;BME280;26812;42.662;23.352;2022-11-20T05:10:33;94195.19;;;18.82;49.09
41062;BME280;26812;42.662;23.352;2022-11-20T05:12:58;94205.31;;;18.78;49.57
41062;BME280;26812;42.662;23.352;2022-11-20T05:15:23;94172.94;;;18.73;49.76
41062;BME280;26812;42.662;23.352;2022-11-20T05:17:52;94184.22;;;18.65;50.70
41062;BME280;26812;42.662;23.352;2022-11-20T05:20:19;94185.31;;;18.49;50.82
41062;BME280;26812;42.662;23.352;2022-11-20T05:22:44;94172.03;;;18.37;51.25
41062;BME280;26812;42.662;23.352;2022-11-20T05:25:11;94178.69;;;18.54;51.39
41062;BME280;26812;42.662;23.352;2022-11-20T05:27:36;94165.16;;;18.68;50.90
41062;BME280;26812;42.662;23.352;2022-11-20T05:30:03;94162.34;;;18.54;52.14
41062;BME280;26812;42.662;23.352;2022-11-20T05:32:29;94163.50;;;18.53;52.55
41062;BME280;26812;42.662;23.352;2022-11-20T05:34:54;94175.19;;;18.53;52.18
41062;BME280;26812;42.662;23.352;2022-11-20T05:37:20;94172.06;;;18.48;52.54
41062;BME280;26812;42.662;23.352;2022-11-20T05:39:45;94186.91;;;18.61;53.95
41062;BME280;26812;42.662;23.352;2022-11-20T05:42:11;94169.34;;;18.55;54.79
41062;BME280;26812;42.662;23.352;2022-11-20T05:44:54;94174.78;;;18.51;55.59
41062;BME280;26812;42.662;23.352;2022-11-20T05:47:20;94167.75;;;18.40;56.32
41062;BME280;26812;42.662;23.352;2022-11-20T05:49:45;94181.69;;;18.20;56.46
41062;BME280;26812;42.662;23.352;2022-11-20T05:52:11;94180.88;;;18.16;56.45
41062;BME280;26812;42.662;23.352;2022-11-20T05:54:36;94167.56;;;18.00;57.23
41062;BME280;26812;42.662;23.352;2022-11-20T05:57:02;94165.72;;;18.19;57.39
41062;BME280;26812;42.662;23.352;2022-11-20T05:59:27;94192.19;;;18.18;57.38
41062;BME280;26812;42.662;23.352;2022-11-20T06:01:52;94185.91;;;18.07;57.69
41062;BME280;26812;42.662;23.352;2022-11-20T06:04:18;94170.38;;;18.18;57.21
41062;BME280;26812;42.662;23.352;2022-11-20T06:06:43;94175.84;;;18.25;57.07
41062;BME280;26812;42.662;23.352;2022-11-20T06:09:09;94186.03;;;18.36;56.63
41062;BME280;26812;42.662;23.352;2022-11-20T06:11:34;94182.09;;;18.29;56.39
41062;BME280;26812;42.662;23.352;2022-11-20T06:13:59;94195.56;;;17.97;57.79
41062;BME280;26812;42.662;23.352;2022-11-20T06:16:25;94202.50;;;17.81;58.22
41062;BME280;26812;42.662;23.352;2022-11-20T06:18:50;94179.06;;;17.73;58.36
41062;BME280;26812;42.662;23.352;2022-11-20T06:21:20;94197.13;;;17.95;58.56
41062;BME280;26812;42.662;23.352;2022-11-20T06:23:47;94194.09;;;18.11;56.76
41062;BME280;26812;42.662;23.352;2022-11-20T06:26:18;94202.28;;;18.11;56.82
41062;BME280;26812;42.662;23.352;2022-11-20T06:28:44;94215.53;;;18.16;56.80
41062;BME280;26812;42.662;23.352;2022-11-20T06:31:12;94202.56;;;17.95;57.09
41062;BME280;26812;42.662;23.352;2022-11-20T06:33:37;94212.41;;;18.10;57.33
41062;BME280;26812;42.662;23.352;2022-11-20T06:36:03;94225.28;;;18.17;56.80
41062;BME280;26812;42.662;23.352;2022-11-20T06:38:29;94199.13;;;18.05;56.64
41062;BME280;26812;42.662;23.352;2022-11-20T06:40:55;94197.25;;;18.20;56.22
41062;BME280;26812;42.662;23.352;2022-11-20T06:43:21;94198.53;;;18.40;55.25
41062;BME280;26812;42.662;23.352;2022-11-20T06:45:51;94218.25;;;18.12;56.25
41062;BME280;26812;42.662;23.352;2022-11-20T06:48:17;94207.81;;;18.32;56.07
41062;BME280;26812;42.662;23.352;2022-11-20T06:50:42;94198.53;;;18.40;55.58
41062;BME280;26812;42.662;23.352;2022-11-20T06:53:07;94215.72;;;18.58;55.03
41062;BME280;26812;42.662;23.352;2022-11-20T06:55:33;94214.66;;;18.74;54.29
41062;BME280;26812;42.662;23.352;2022-11-20T06:57:58;94214.69;;;18.84;54.50
41062;BME280;26812;42.662;23.352;2022-11-20T07:00:24;94217.47;;;18.99;54.46
41062;BME280;26812;42.662;23.352;2022-11-20T07:02:49;94233.06;;;19.05;53.47
41062;BME280;26812;42.662;23.352;2022-11-20T07:05:17;94236.91;;;18.86;53.80
41062;BME280;26812;42.662;23.352;2022-11-20T07:07:42;94245.06;;;18.76;55.42
41062;BME280;26812;42.662;23.352;2022-11-20T07:10:08;94234.94;;;18.80;53.28
41062;BME280;26812;42.662;23.352;2022-11-20T07:12:34;94232.59;;;18.82;51.38
41062;BME280;26812;42.662;23.352;2022-11-20T07:14:59;94244.75;;;18.99;52.39
41062;BME280;26812;42.662;23.352;2022-11-20T07:17:24;94213.56;;;19.00;52.09
41062;BME280;26812;42.662;23.352;2022-11-20T07:19:50;94235.38;;;18.96;51.55
41062;BME280;26812;42.662;23.352;2022-11-20T07:22:16;94218.59;;;18.90;52.68
41062;BME280;26812;42.662;23.352;2022-11-20T07:24:41;94245.97;;;19.26;52.11
41062;BME280;26812;42.662;23.352;2022-11-20T07:27:07;94237.38;;;19.10;51.95
41062;BME280;26812;42.662;23.352;2022-11-20T07:29:33;94261.94;;;19.24;51.52
41062;BME280;26812;42.662;23.352;2022-11-20T07:31:58;94253.81;;;19.38;50.80
41062;BME280;26812;42.662;23.352;2022-11-20T07:34:24;94240.50;;;19.12;51.70
41062;BME280;26812;42.662;23.352;2022-11-20T07:36:49;94237.38;;;19.17;51.04
41062;BME280;26812;42.662;23.352;2022-11-20T07:39:15;94239.94;;;18.67;53.05
41062;BME280;26812;42.662;23.352;2022-11-20T07:41:41;94234.03;;;18.54;53.72
41062;BME280;26812;42.662;23.352;2022-11-20T07:44:06;94241.53;;;18.68;53.14
41062;BME280;26812;42.662;23.352;2022-11-20T07:46:31;94243.53;;;18.92;52.15
41062;BME280;26812;42.662;23.352;2022-11-20T07:48:57;94234.97;;;18.94;52.17
41062;BME280;26812;42.662;23.352;2022-11-20T07:51:22;94248.28;;;19.10;52.10
41062;BME280;26812;42.662;23.352;2022-11-20T07:53:51;94251.03;;;19.17;52.10
41062;BME280;26812;42.662;23.352;2022-11-20T07:56:16;94236.59;;;19.16;51.82
41062;BME280;26812;42.662;23.352;2022-11-20T07:58:41;94251.41;;;19.26;51.21
41062;BME280;26812;42.662;23.352;2022-11-20T08:01:07;94238.94;;;19.11;50.29
41062;BME280;26812;42.662;23.352;2022-11-20T08:03:33;94242.44;;;19.04;51.00
41062;BME280;26812;42.662;23.352;2022-11-20T08:06:00;94242.03;;;18.99;51.45
41062;BME280;26812;42.662;23.352;2022-11-20T08:08:28;94241.22;;;18.95;51.24
41062;BME280;26812;42.662;23.352;2022-11-20T08:10:54;94228.34;;;18.91;51.06
41062;BME280;26812;42.662;23.352;2022-11-20T08:13:41;94218.19;;;18.85;51.50
41062;BME280;26812;42.662;23.352;2022-11-20T08:16:25;94224.50;;;19.07;51.34
41062;BME280;26812;42.662;23.352;2022-11-20T08:18:50;94226.06;;;19.08;51.03
41062;BME280;26812;42.662;23.352;2022-11-20T08:21:16;94236.56;;;19.06;51.07
41062;BME280;26812;42.662;23.352;2022-11-20T08:23:41;94233.47;;;19.04;51.02
41062;BME280;26812;42.662;23.352;2022-11-20T08:26:07;94231.91;;;19.10;50.91
41062;BME280;26812;42.662;23.352;2022-11-20T08:28:32;94256.91;;;19.33;50.16
41062;BME280;26812;42.662;23.352;2022-11-20T08:31:01;94259.22;;;19.17;50.44
41062;BME280;26812;42.662;23.352;2022-11-20T08:33:27;94266.28;;;19.32;50.15
41062;BME280;26812;42.662;23.352;2022-11-20T08:35:53;94236.22;;;19.21;49.95
41062;BME280;26812;42.662;23.352;2022-11-20T08:38:18;94226.06;;;19.08;50.15
41062;BME280;26812;42.662;23.352;2022-11-20T08:40:44;94248.34;;;19.35;50.00
41062;BME280;26812;42.662;23.352;2022-11-20T08:43:29;94249.53;;;19.55;50.46
41062;BME280;26812;42.662;23.352;2022-11-20T08:45:56;94253.41;;;19.47;50.87
41062;BME280;26812;42.662;23.352;2022-11-20T08:48:22;94261.56;;;19.15;52.65
41062;BME280;26812;42.662;23.352;2022-11-20T08:50:47;94271.59;;;18.86;52.21
41062;BME280;26812;42.662;23.352;2022-11-20T08:53:13;94294.69;;;19.03;53.46
41062;BME280;26812;42.662;23.352;2022-11-20T08:55:38;94296.56;;;18.84;52.74
41062;BME280;26812;42.662;23.352;2022-11-20T08:58:08;94284.06;;;18.76;52.92
41062;BME280;26812;42.662;23.352;2022-11-20T09:00:34;94286.50;;;19.06;52.89
41062;BME280;26812;42.662;23.352;2022-11-20T09:02:59;94278.34;;;19.24;51.66
41062;BME280;26812;42.662;23.352;2022-11-20T09:05:26;94293.59;;;19.39;50.88
41062;BME280;26812;42.662;23.352;2022-11-20T09:07:51;94296.31;;;19.32;51.26
41062;BME280;26812;42.662;23.352;2022-11-20T09:10:17;94304.50;;;19.29;52.25
41062;BME280;26812;42.662;23.352;2022-11-20T09:12:42;94289.25;;;19.17;53.72
41062;BME280;26812;42.662;23.352;2022-11-20T09:15:08;94290.44;;;19.23;53.79
41062;BME280;26812;42.662;23.352;2022-11-20T09:17:33;94293.91;;;19.02;54.84
41062;BME280;26812;42.662;23.352;2022-11-20T09:19:59;94295.34;;;18.71;60.00
41062;BME280;26812;42.662;23.352;2022-11-20T09:22:25;94289.44;;;18.62;58.32
41062;BME280;26812;42.662;23.352;2022-11-20T09:24:50;94307.31;;;18.59;63.69
41062;BME280;26812;42.662;23.352;2022-11-20T09:27:15;94295.56;;;18.45;65.78
41062;BME280;26812;42.662;23.352;2022-11-20T09:29:46;94289.34;;;17.89;57.75
41062;BME280;26812;42.662;23.352;2022-11-20T09:32:11;94282.03;;;18.04;60.71
41062;BME280;26812;42.662;23.352;2022-11-20T09:34:37;94271.91;;;18.05;59.74
41062;BME280;26812;42.662;23.352;2022-11-20T09:37:02;94288.47;;;18.37;60.09
41062;BME280;26812;42.662;23.352;2022-11-20T09:39:28;94276.06;;;18.43;61.87
41062;BME280;26812;42.662;23.352;2022-11-20T09:42:12;94268.59;;;18.33;63.63
41062;BME280;26812;42.662;23.352;2022-11-20T09:45:03;94265.97;;;18.50;62.25
41062;BME280;26812;42.662;23.352;2022-11-20T09:50:52;94251.59;;;18.60;59.96
41062;BME280;26812;42.662;23.352;2022-11-20T09:56:03;94234.88;;;18.66;63.98
41062;BME280;26812;42.662;23.352;2022-11-20T09:58:38;94244.69;;;18.84;63.60
41062;BME280;26812;42.662;23.352;2022-11-20T10:01:12;94236.25;;;19.29;59.71
41062;BME280;26812;42.662;23.352;2022-11-20T10:03:56;94245.22;;;20.22;57.99
41062;BME280;26812;42.662;23.352;2022-11-20T10:06:37;94230.03;;;21.74;54.85
41062;BME280;26812;42.662;23.352;2022-11-20T10:23:04;94231.50;;;23.56;46.39
41062;BME280;26812;42.662;23.352;2022-11-20T10:25:47;94227.91;;;22.34;48.78
41062;BME280;26812;42.662;23.352;2022-11-20T10:30:55;94223.38;;;19.58;58.01
41062;BME280;26812;42.662;23.352;2022-11-20T10:33:23;94215.16;;;20.07;56.62
41062;BME280;26812;42.662;23.352;2022-11-20T10:36:08;94229.16;;;20.38;54.60
41062;BME280;26812;42.662;23.352;2022-11-20T10:38:48;94222.94;;;20.27;54.35
41062;BME280;26812;42.662;23.352;2022-11-20T10:41:28;94234.25;;;20.32;54.88
41062;BME280;26812;42.662;23.352;2022-11-20T10:46:36;94249.94;;;19.64;57.29
41062;BME280;26812;42.662;23.352;2022-11-20T10:49:10;94236.59;;;19.13;59.73
41062;BME280;26812;42.662;23.352;2022-11-20T10:54:46;94226.84;;;19.26;59.09
41062;BME280;26812;42.662;23.352;2022-11-20T11:00:06;94254.06;;;18.07;64.03
41062;BME280;26812;42.662;23.352;2022-11-20T11:05:08;94257.22;;;18.20;63.39
41062;BME280;26812;42.662;23.352;2022-11-20T11:07:39;94272.28;;;17.99;66.29
41062;BME280;26812;42.662;23.352;2022-11-20T11:10:20;94270.88;;;17.68;68.60
41062;BME280;26812;42.662;23.352;2022-11-20T11:12:47;94288.09;;;17.39;71.19
41062;BME280;26812;42.662;23.352;2022-11-20T11:18:03;94325.69;;;16.89;75.00
41062;BME280;26812;42.662;23.352;2022-11-20T11:20:29;94317.31;;;16.19;67.76
41062;BME280;26812;42.662;23.352;2022-11-20T11:22:59;94321.25;;;15.95;64.04
41062;BME280;26812;42.662;23.352;2022-11-20T11:25:33;94315.19;;;16.05;64.70
41062;BME280;26812;42.662;23.352;2022-11-20T11:30:28;94284.66;;;15.89;67.31
41062;BME280;26812;42.662;23.352;2022-11-20T11:33:25;94288.75;;;16.02;63.57
41062;BME280;26812;42.662;23.352;2022-11-20T11:35:54;94299.94;;;15.97;64.94
41062;BME280;26812;42.662;23.352;2022-11-20T11:38:42;94301.47;;;15.94;65.54
41062;BME280;26812;42.662;23.352;2022-11-20T11:41:19;94285.09;;;15.45;64.52
41062;BME280;26812;42.662;23.352;2022-11-20T11:43:53;94246.78;;;14.81;64.64
41062;BME280;26812;42.662;23.352;2022-11-20T11:46:39;94273.97;;;14.85;67.23
41062;BME280;26812;42.662;23.352;2022-11-20T11:54:38;94271.47;;;14.76;66.91
41062;BME280;26812;42.662;23.352;2022-11-20T11:57:35;94272.97;;;14.54;67.43
41062;BME280;26812;42.662;23.352;2022-11-20T12:05:43;94243.81;;;14.90;69.53
41062;BME280;26812;42.662;23.352;2022-11-20T12:08:21;94240.03;;;14.95;67.64
41062;BME280;26812;42.662;23.352;2022-11-20T12:10:56;94250.25;;;15.01;66.96
41062;BME280;26812;42.662;23.352;2022-11-20T12:16:00;94245.50;;;14.75;68.55
41062;BME280;26812;42.662;23.352;2022-11-20T12:18:27;94256.84;;;14.42;68.51
41062;BME280;26812;42.662;23.352;2022-11-20T12:29:05;94267.50;;;14.35;67.14
41062;BME280;26812;42.662;23.352;2022-11-20T12:34:14;94286.03;;;14.49;68.39
41062;BME280;26812;42.662;23.352;2022-11-20T12:36:52;94253.34;;;14.42;67.22
41062;BME280;26812;42.662;23.352;2022-11-20T12:42:08;94208.06;;;14.42;67.68
41062;BME280;26812;42.662;23.352;2022-11-20T12:45:09;94173.47;;;14.55;69.14
41062;BME280;26812;42.662;23.352;2022-11-20T12:58:58;94186.78;;;14.64;68.87
41062;BME280;26812;42.662;23.352;2022-11-20T13:04:28;94184.63;;;14.96;68.80
41062;BME280;26812;42.662;23.352;2022-11-20T13:07:01;94172.53;;;15.12;70.21
41062;BME280;26812;42.662;23.352;2022-11-20T13:09:28;94171.69;;;15.08;70.04
41062;BME280;26812;42.662;23.352;2022-11-20T13:14:45;94187.91;;;14.82;72.42
41062;BME280;26812;42.662;23.352;2022-11-20T13:19:54;94224.56;;;14.37;74.86
41062;BME280;26812;42.662;23.352;2022-11-20T13:22:43;94215.22;;;14.50;75.08
41062;BME280;26812;42.662;23.352;2022-11-20T13:25:10;94196.47;;;14.65;71.17
41062;BME280;26812;42.662;23.352;2022-11-20T13:27:46;94171.25;;;14.60;72.27
41062;BME280;26812;42.662;23.352;2022-11-20T13:30:16;94218.22;;;14.45;73.50
41062;BME280;26812;42.662;23.352;2022-11-20T13:35:25;94250.91;;;14.17;74.34
41062;BME280;26812;42.662;23.352;2022-11-20T13:40:26;94202.78;;;14.49;74.04
41062;BME280;26812;42.662;23.352;2022-11-20T13:42:56;94254.19;;;14.26;74.89
41062;BME280;26812;42.662;23.352;2022-11-20T13:45:27;94214.19;;;14.20;75.77
41062;BME280;26812;42.662;23.352;2022-11-20T13:47:54;94217.31;;;14.41;74.48
41062;BME280;26812;42.662;23.352;2022-11-20T13:55:53;94236.81;;;14.47;72.65
41062;BME280;26812;42.662;23.352;2022-11-20T14:01:26;94270.34;;;14.58;75.50
41062;BME280;26812;42.662;23.352;2022-11-20T14:03:52;94253.94;;;14.70;75.52
41062;BME280;26812;42.662;23.352;2022-11-20T14:06:40;94246.97;;;14.92;74.97
41062;BME280;26812;42.662;23.352;2022-11-20T14:09:26;94256.53;;;14.86;74.93
41062;BME280;26812;42.662;23.352;2022-11-20T14:11:52;94235.38;;;14.95;75.12
41062;BME280;26812;42.662;23.352;2022-11-20T14:14:20;94222.44;;;14.85;72.62
41062;BME280;26812;42.662;23.352;2022-11-20T14:16:47;94220.53;;;15.08;71.65
41062;BME280;26812;42.662;23.352;2022-11-20T14:21:45;94231.75;;;15.07;73.40
41062;BME280;26812;42.662;23.352;2022-11-20T14:24:12;94220.44;;;14.82;74.60
41062;BME280;26812;42.662;23.352;2022-11-20T14:26:41;94214.97;;;14.78;75.54
41062;BME280;26812;42.662;23.352;2022-11-20T14:29:19;94218.44;;;14.79;75.76
41062;BME280;26812;42.662;23.352;2022-11-20T14:31:46;94207.34;;;14.65;76.12
41062;BME280;26812;42.662;23.352;2022-11-20T14:34:18;94226.72;;;14.86;76.40
41062;BME280;26812;42.662;23.352;2022-11-20T14:36:45;94224.72;;;14.83;75.71
41062;BME280;26812;42.662;23.352;2022-11-20T14:39:34;94247.09;;;14.99;75.88
41062;BME280;26812;42.662;23.352;2022-11-20T14:42:00;94235.53;;;15.02;74.97
41062;BME280;26812;42.662;23.352;2022-11-20T14:44:33;94234.41;;;15.03;74.13
41062;BME280;26812;42.662;23.352;2022-11-20T14:47:02;94248.72;;;15.27;73.44
41062;BME280;26812;42.662;23.352;2022-11-20T14:49:30;94229.69;;;15.23;72.97
41062;BME280;26812;42.662;23.352;2022-11-20T14:52:01;94254.78;;;15.39;72.82